sensor_id;sensor_type;location;lat;lon;timestamp;temperature;humidity
34815;DHT22;21030;53.912;15.214;2023-03-24T00:00:21;31.00;28.90
34815;DHT22;21030;53.912;15.214;2023-03-24T00:02:50;31.20;28.70
34815;DHT22;21030;53.912;15.214;2023-03-24T00:05:20;31.90;28.40
34815;DHT22;21030;53.912;15.214;2023-03-24T00:07:48;32.50;27.70
34815;DHT22;21030;53.912;15.214;2023-03-24T00:10:20;33.20;27.10
34815;DHT22;21030;53.912;15.214;2023-03-24T00:12:50;33.00;26.90
34815;DHT22;21030;53.912;15.214;2023-03-24T00:15:20;32.80;27.10
34815;DHT22;21030;53.912;15.214;2023-03-24T00:17:48;32.70;27.30
34815;DHT22;21030;53.912;15.214;2023-03-24T00:20:19;32.60;27.20
34815;DHT22;21030;53.912;15.214;2023-03-24T00:22:50;32.70;27.30
34815;DHT22;21030;53.912;15.214;2023-03-24T00:25:26;32.80;27.40
34815;DHT22;21030;53.912;15.214;2023-03-24T00:28:02;33.00;27.20
34815;DHT22;21030;53.912;15.214;2023-03-24T00:30:35;33.20;27.00
34815;DHT22;21030;53.912;15.214;2023-03-24T00:33:02;32.60;27.20
34815;DHT22;21030;53.912;15.214;2023-03-24T00:35:30;32.40;27.30
34815;DHT22;21030;53.912;15.214;2023-03-24T00:37:57;33.20;27.10
34815;DHT22;21030;53.912;15.214;2023-03-24T00:40:24;33.70;27.00
34815;DHT22;21030;53.912;15.214;2023-03-24T00:42:51;34.00;26.00
34815;DHT22;21030;53.912;15.214;2023-03-24T00:45:20;34.10;26.00
34815;DHT22;21030;53.912;15.214;2023-03-24T00:47:51;33.80;25.70
34815;DHT22;21030;53.912;15.214;2023-03-24T00:50:23;33.80;26.10
34815;DHT22;21030;53.912;15.214;2023-03-24T00:52:54;33.30;26.20
34815;DHT22;21030;53.912;15.214;2023-03-24T00:55:21;33.70;26.40
34815;DHT22;21030;53.912;15.214;2023-03-24T00:57:51;34.00;26.20
34815;DHT22;21030;53.912;15.214;2023-03-24T01:00:21;34.30;25.90
34815;DHT22;21030;53.912;15.214;2023-03-24T01:02:52;34.40;25.70
34815;DHT22;21030;53.912;15.214;2023-03-24T01:05:25;34.50;25.70
34815;DHT22;21030;53.912;15.214;2023-03-24T01:08:00;34.50;25.50
34815;DHT22;21030;53.912;15.214;2023-03-24T01:10:34;34.40;25.50
34815;DHT22;21030;53.912;15.214;2023-03-24T01:13:08;34.40;25.70
34815;DHT22;21030;53.912;15.214;2023-03-24T01:15:36;34.00;25.80
34815;DHT22;21030;53.912;15.214;2023-03-24T01:18:04;33.60;26.60
34815;DHT22;21030;53.912;15.214;2023-03-24T01:20:31;32.90;26.80
34815;DHT22;21030;53.912;15.214;2023-03-24T01:23:00;32.30;27.20
34815;DHT22;21030;53.912;15.214;2023-03-24T01:25:28;32.50;27.30
34815;DHT22;21030;53.912;15.214;2023-03-24T01:27:56;32.60;27.40
34815;DHT22;21030;53.912;15.214;2023-03-24T01:30:25;32.60;27.10
34815;DHT22;21030;53.912;15.214;2023-03-24T01:32:53;33.00;27.20
34815;DHT22;21030;53.912;15.214;2023-03-24T01:35:22;32.50;27.30
34815;DHT22;21030;53.912;15.214;2023-03-24T01:37:49;32.50;27.30
34815;DHT22;21030;53.912;15.214;2023-03-24T01:40:22;32.50;27.60
34815;DHT22;21030;53.912;15.214;2023-03-24T01:42:50;32.60;27.30
34815;DHT22;21030;53.912;15.214;2023-03-24T01:51:03;32.60;27.30
34815;DHT22;21030;53.912;15.214;2023-03-24T01:53:33;32.90;27.20
34815;DHT22;21030;53.912;15.214;2023-03-24T01:56:02;33.20;27.00
34815;DHT22;21030;53.912;15.214;2023-03-24T01:58:32;33.20;26.90
34815;DHT22;21030;53.912;15.214;2023-03-24T02:01:00;33.10;26.80
34815;DHT22;21030;53.912;15.214;2023-03-24T02:03:27;33.40;26.90
34815;DHT22;21030;53.912;15.214;2023-03-24T02:06:00;32.80;26.80
34815;DHT22;21030;53.912;15.214;2023-03-24T02:10:56;32.40;27.20
34815;DHT22;21030;53.912;15.214;2023-03-24T02:13:24;32.70;27.20
34815;DHT22;21030;53.912;15.214;2023-03-24T02:16:18;32.80;27.00
34815;DHT22;21030;53.912;15.214;2023-03-24T02:22:43;32.70;27.30
34815;DHT22;21030;53.912;15.214;2023-03-24T02:39:20;33.30;26.70
34815;DHT22;21030;53.912;15.214;2023-03-24T02:55:09;31.30;27.20
34815;DHT22;21030;53.912;15.214;2023-03-24T03:00:42;31.40;28.00
34815;DHT22;21030;53.912;15.214;2023-03-24T03:03:16;31.40;28.20
34815;DHT22;21030;53.912;15.214;2023-03-24T03:05:49;32.50;28.00
34815;DHT22;21030;53.912;15.214;2023-03-24T03:08:20;32.10;27.80
34815;DHT22;21030;53.912;15.214;2023-03-24T03:10:51;32.60;27.60
34815;DHT22;21030;53.912;15.214;2023-03-24T03:13:27;32.20;27.70
34815;DHT22;21030;53.912;15.214;2023-03-24T03:16:02;32.10;27.40
34815;DHT22;21030;53.912;15.214;2023-03-24T03:18:31;30.80;27.80
34815;DHT22;21030;53.912;15.214;2023-03-24T03:21:14;31.80;28.30
34815;DHT22;21030;53.912;15.214;2023-03-24T03:23:59;31.60;28.40
34815;DHT22;21030;53.912;15.214;2023-03-24T03:26:30;31.00;28.40
34815;DHT22;21030;53.912;15.214;2023-03-24T03:29:02;31.20;28.70
34815;DHT22;21030;53.912;15.214;2023-03-24T03:31:36;30.70;28.90
34815;DHT22;21030;53.912;15.214;2023-03-24T03:37:29;30.60;29.30
34815;DHT22;21030;53.912;15.214;2023-03-24T03:40:05;30.80;29.30
34815;DHT22;21030;53.912;15.214;2023-03-24T03:42:35;30.20;29.20
34815;DHT22;21030;53.912;15.214;2023-03-24T03:45:03;30.90;29.30
34815;DHT22;21030;53.912;15.214;2023-03-24T03:47:30;30.40;29.40
34815;DHT22;21030;53.912;15.214;2023-03-24T03:50:00;30.00;29.60
34815;DHT22;21030;53.912;15.214;2023-03-24T03:52:28;30.20;29.50
34815;DHT22;21030;53.912;15.214;2023-03-24T03:54:57;30.70;29.30
34815;DHT22;21030;53.912;15.214;2023-03-24T03:57:27;31.30;29.10
34815;DHT22;21030;53.912;15.214;2023-03-24T03:59:54;30.50;28.80
34815;DHT22;21030;53.912;15.214;2023-03-24T04:05:35;30.40;29.40
34815;DHT22;21030;53.912;15.214;2023-03-24T04:08:40;29.50;30.20
34815;DHT22;21030;53.912;15.214;2023-03-24T04:11:42;28.80;30.50
34815;DHT22;21030;53.912;15.214;2023-03-24T04:14:22;28.50;31.00
34815;DHT22;21030;53.912;15.214;2023-03-24T04:17:02;29.60;31.20
34815;DHT22;21030;53.912;15.214;2023-03-24T04:20:13;29.10;30.50
34815;DHT22;21030;53.912;15.214;2023-03-24T04:23:11;28.60;31.00
34815;DHT22;21030;53.912;15.214;2023-03-24T04:25:47;29.50;30.60
34815;DHT22;21030;53.912;15.214;2023-03-24T04:28:21;29.20;31.00
34815;DHT22;21030;53.912;15.214;2023-03-24T04:31:34;30.00;30.50
34815;DHT22;21030;53.912;15.214;2023-03-24T04:34:06;28.90;30.30
34815;DHT22;21030;53.912;15.214;2023-03-24T04:36:42;29.90;30.40
34815;DHT22;21030;53.912;15.214;2023-03-24T04:39:15;29.90;29.90
34815;DHT22;21030;53.912;15.214;2023-03-24T04:41:44;29.70;30.20
34815;DHT22;21030;53.912;15.214;2023-03-24T04:44:14;30.10;30.40
34815;DHT22;21030;53.912;15.214;2023-03-24T04:46:43;29.60;30.40
34815;DHT22;21030;53.912;15.214;2023-03-24T04:49:10;29.80;30.70
34815;DHT22;21030;53.912;15.214;2023-03-24T04:51:37;29.90;30.50
34815;DHT22;21030;53.912;15.214;2023-03-24T04:54:04;29.80;30.50
34815;DHT22;21030;53.912;15.214;2023-03-24T04:56:40;29.90;30.20
34815;DHT22;21030;53.912;15.214;2023-03-24T04:59:09;29.50;30.90
34815;DHT22;21030;53.912;15.214;2023-03-24T05:01:39;29.50;31.00
34815;DHT22;21030;53.912;15.214;2023-03-24T05:04:06;29.60;31.00
34815;DHT22;21030;53.912;15.214;2023-03-24T05:06:34;29.70;30.40
34815;DHT22;21030;53.912;15.214;2023-03-24T05:09:01;28.60;31.20
34815;DHT22;21030;53.912;15.214;2023-03-24T05:11:30;29.10;31.80
34815;DHT22;21030;53.912;15.214;2023-03-24T05:13:57;28.50;31.50
34815;DHT22;21030;53.912;15.214;2023-03-24T05:16:24;28.30;32.20
34815;DHT22;21030;53.912;15.214;2023-03-24T05:18:52;28.60;32.30
34815;DHT22;21030;53.912;15.214;2023-03-24T05:21:19;27.90;32.80
34815;DHT22;21030;53.912;15.214;2023-03-24T05:23:46;28.50;32.70
34815;DHT22;21030;53.912;15.214;2023-03-24T05:26:13;28.70;32.40
34815;DHT22;21030;53.912;15.214;2023-03-24T05:28:40;28.60;32.50
34815;DHT22;21030;53.912;15.214;2023-03-24T05:31:07;29.00;31.80
34815;DHT22;21030;53.912;15.214;2023-03-24T05:33:34;28.90;32.40
34815;DHT22;21030;53.912;15.214;2023-03-24T05:36:01;28.90;32.00
34815;DHT22;21030;53.912;15.214;2023-03-24T05:38:29;29.10;31.90
34815;DHT22;21030;53.912;15.214;2023-03-24T05:40:57;29.20;32.00
34815;DHT22;21030;53.912;15.214;2023-03-24T05:43:25;29.30;31.70
34815;DHT22;21030;53.912;15.214;2023-03-24T05:45:53;28.70;32.20
34815;DHT22;21030;53.912;15.214;2023-03-24T05:48:22;28.80;32.90
34815;DHT22;21030;53.912;15.214;2023-03-24T05:50:50;29.00;32.40
34815;DHT22;21030;53.912;15.214;2023-03-24T05:53:17;28.90;32.70
34815;DHT22;21030;53.912;15.214;2023-03-24T05:55:44;29.90;32.10
34815;DHT22;21030;53.912;15.214;2023-03-24T05:58:12;30.00;31.60
34815;DHT22;21030;53.912;15.214;2023-03-24T06:00:39;29.80;31.60
34815;DHT22;21030;53.912;15.214;2023-03-24T06:03:06;29.70;31.00
34815;DHT22;21030;53.912;15.214;2023-03-24T06:05:33;30.30;31.20
34815;DHT22;21030;53.912;15.214;2023-03-24T06:08:01;29.60;31.80
34815;DHT22;21030;53.912;15.214;2023-03-24T06:10:29;29.80;32.00
34815;DHT22;21030;53.912;15.214;2023-03-24T06:12:56;30.20;31.70
34815;DHT22;21030;53.912;15.214;2023-03-24T06:15:24;29.50;31.80
34815;DHT22;21030;53.912;15.214;2023-03-24T06:17:53;29.80;32.10
34815;DHT22;21030;53.912;15.214;2023-03-24T06:20:21;28.90;32.30
34815;DHT22;21030;53.912;15.214;2023-03-24T06:22:48;29.50;32.30
34815;DHT22;21030;53.912;15.214;2023-03-24T06:25:17;29.50;32.30
34815;DHT22;21030;53.912;15.214;2023-03-24T06:27:47;29.50;32.70
34815;DHT22;21030;53.912;15.214;2023-03-24T06:30:15;28.50;32.90
34815;DHT22;21030;53.912;15.214;2023-03-24T06:32:43;28.80;33.40
34815;DHT22;21030;53.912;15.214;2023-03-24T06:35:14;28.40;33.20
34815;DHT22;21030;53.912;15.214;2023-03-24T06:37:42;28.10;34.70
34815;DHT22;21030;53.912;15.214;2023-03-24T06:40:11;27.80;35.10
34815;DHT22;21030;53.912;15.214;2023-03-24T06:42:41;28.40;34.40
34815;DHT22;21030;53.912;15.214;2023-03-24T06:45:08;28.20;34.10
34815;DHT22;21030;53.912;15.214;2023-03-24T06:47:36;27.90;34.50
34815;DHT22;21030;53.912;15.214;2023-03-24T06:50:05;27.70;34.90
34815;DHT22;21030;53.912;15.214;2023-03-24T06:52:33;28.80;34.20
34815;DHT22;21030;53.912;15.214;2023-03-24T06:55:01;29.40;33.10
34815;DHT22;21030;53.912;15.214;2023-03-24T06:57:29;29.00;33.40
34815;DHT22;21030;53.912;15.214;2023-03-24T06:59:56;29.00;33.10
34815;DHT22;21030;53.912;15.214;2023-03-24T07:02:23;29.10;33.30
34815;DHT22;21030;53.912;15.214;2023-03-24T07:04:51;28.60;33.40
34815;DHT22;21030;53.912;15.214;2023-03-24T07:07:20;28.30;34.10
34815;DHT22;21030;53.912;15.214;2023-03-24T07:10:08;28.20;34.20
34815;DHT22;21030;53.912;15.214;2023-03-24T07:12:36;27.80;34.90
34815;DHT22;21030;53.912;15.214;2023-03-24T07:15:04;27.90;34.90
34815;DHT22;21030;53.912;15.214;2023-03-24T07:17:33;28.40;34.80
34815;DHT22;21030;53.912;15.214;2023-03-24T07:20:00;29.00;33.80
34815;DHT22;21030;53.912;15.214;2023-03-24T07:22:27;28.40;34.30
34815;DHT22;21030;53.912;15.214;2023-03-24T07:24:54;27.80;35.70
34815;DHT22;21030;53.912;15.214;2023-03-24T07:27:23;27.80;36.20
34815;DHT22;21030;53.912;15.214;2023-03-24T07:29:50;28.30;35.30
34815;DHT22;21030;53.912;15.214;2023-03-24T07:32:20;28.60;35.10
34815;DHT22;21030;53.912;15.214;2023-03-24T07:34:47;28.60;34.40
34815;DHT22;21030;53.912;15.214;2023-03-24T07:37:15;28.60;34.10
34815;DHT22;21030;53.912;15.214;2023-03-24T07:39:42;28.50;34.30
34815;DHT22;21030;53.912;15.214;2023-03-24T07:42:09;27.80;35.90
34815;DHT22;21030;53.912;15.214;2023-03-24T07:44:38;28.10;35.40
34815;DHT22;21030;53.912;15.214;2023-03-24T07:47:05;27.60;36.30
34815;DHT22;21030;53.912;15.214;2023-03-24T07:49:32;28.10;36.20
34815;DHT22;21030;53.912;15.214;2023-03-24T07:51:59;28.10;36.40
34815;DHT22;21030;53.912;15.214;2023-03-24T07:54:33;28.60;34.90
34815;DHT22;21030;53.912;15.214;2023-03-24T07:57:00;28.80;35.00
34815;DHT22;21030;53.912;15.214;2023-03-24T07:59:28;28.60;34.80
34815;DHT22;21030;53.912;15.214;2023-03-24T08:01:55;28.90;34.70
34815;DHT22;21030;53.912;15.214;2023-03-24T08:04:25;28.10;35.20
34815;DHT22;21030;53.912;15.214;2023-03-24T08:06:54;27.80;35.90
34815;DHT22;21030;53.912;15.214;2023-03-24T08:09:21;27.90;36.10
34815;DHT22;21030;53.912;15.214;2023-03-24T08:11:49;27.40;36.80
34815;DHT22;21030;53.912;15.214;2023-03-24T08:14:18;27.20;37.30
34815;DHT22;21030;53.912;15.214;2023-03-24T08:16:46;27.50;37.00
34815;DHT22;21030;53.912;15.214;2023-03-24T08:19:13;27.00;38.00
34815;DHT22;21030;53.912;15.214;2023-03-24T08:21:40;27.10;37.70
34815;DHT22;21030;53.912;15.214;2023-03-24T08:24:07;27.40;37.20
34815;DHT22;21030;53.912;15.214;2023-03-24T08:26:34;27.20;37.30
34815;DHT22;21030;53.912;15.214;2023-03-24T08:29:02;26.20;38.70
34815;DHT22;21030;53.912;15.214;2023-03-24T08:31:33;26.70;38.90
34815;DHT22;21030;53.912;15.214;2023-03-24T08:34:02;27.30;38.00
34815;DHT22;21030;53.912;15.214;2023-03-24T08:36:30;27.10;37.70
34815;DHT22;21030;53.912;15.214;2023-03-24T08:38:57;27.30;37.50
34815;DHT22;21030;53.912;15.214;2023-03-24T08:41:25;27.00;37.90
34815;DHT22;21030;53.912;15.214;2023-03-24T08:44:04;26.80;38.50
34815;DHT22;21030;53.912;15.214;2023-03-24T08:46:33;26.70;38.80
34815;DHT22;21030;53.912;15.214;2023-03-24T08:49:00;27.20;38.00
34815;DHT22;21030;53.912;15.214;2023-03-24T08:51:28;27.10;37.60
34815;DHT22;21030;53.912;15.214;2023-03-24T08:53:55;26.00;40.00
34815;DHT22;21030;53.912;15.214;2023-03-24T08:56:23;26.40;39.60
34815;DHT22;21030;53.912;15.214;2023-03-24T08:58:52;27.00;38.50
34815;DHT22;21030;53.912;15.214;2023-03-24T09:01:20;26.60;38.60
34815;DHT22;21030;53.912;15.214;2023-03-24T09:03:49;26.30;39.50
34815;DHT22;21030;53.912;15.214;2023-03-24T09:06:16;26.60;38.70
34815;DHT22;21030;53.912;15.214;2023-03-24T09:08:44;26.50;39.40
34815;DHT22;21030;53.912;15.214;2023-03-24T09:11:17;26.90;38.40
34815;DHT22;21030;53.912;15.214;2023-03-24T09:13:44;26.70;39.10
34815;DHT22;21030;53.912;15.214;2023-03-24T09:16:13;26.80;39.60
34815;DHT22;21030;53.912;15.214;2023-03-24T09:18:41;26.60;39.60
34815;DHT22;21030;53.912;15.214;2023-03-24T09:21:08;26.60;40.00
34815;DHT22;21030;53.912;15.214;2023-03-24T09:23:36;26.60;39.60
34815;DHT22;21030;53.912;15.214;2023-03-24T09:26:04;27.00;39.20
34815;DHT22;21030;53.912;15.214;2023-03-24T09:28:31;26.70;39.30
34815;DHT22;21030;53.912;15.214;2023-03-24T09:31:00;27.30;39.00
34815;DHT22;21030;53.912;15.214;2023-03-24T09:33:28;27.40;38.60
34815;DHT22;21030;53.912;15.214;2023-03-24T09:35:58;26.70;39.60
34815;DHT22;21030;53.912;15.214;2023-03-24T09:38:27;26.60;40.00
34815;DHT22;21030;53.912;15.214;2023-03-24T09:40:56;26.90;40.30
34815;DHT22;21030;53.912;15.214;2023-03-24T09:43:36;27.20;39.90
34815;DHT22;21030;53.912;15.214;2023-03-24T09:46:10;27.10;40.00
34815;DHT22;21030;53.912;15.214;2023-03-24T09:49:01;26.50;40.70
34815;DHT22;21030;53.912;15.214;2023-03-24T09:51:37;27.50;40.40
34815;DHT22;21030;53.912;15.214;2023-03-24T09:56:54;27.20;40.20
34815;DHT22;21030;53.912;15.214;2023-03-24T09:59:35;27.30;40.70
34815;DHT22;21030;53.912;15.214;2023-03-24T10:02:11;27.60;39.60
34815;DHT22;21030;53.912;15.214;2023-03-24T10:04:39;26.90;40.40
34815;DHT22;21030;53.912;15.214;2023-03-24T10:07:18;26.70;41.60
34815;DHT22;21030;53.912;15.214;2023-03-24T10:09:55;27.10;41.00
34815;DHT22;21030;53.912;15.214;2023-03-24T10:12:38;26.80;41.10
34815;DHT22;21030;53.912;15.214;2023-03-24T10:20:53;26.30;42.20
34815;DHT22;21030;53.912;15.214;2023-03-24T10:29:31;26.00;44.30
34815;DHT22;21030;53.912;15.214;2023-03-24T10:32:17;26.60;42.50
34815;DHT22;21030;53.912;15.214;2023-03-24T10:34:54;26.90;42.30
34815;DHT22;21030;53.912;15.214;2023-03-24T10:37:23;27.10;41.20
34815;DHT22;21030;53.912;15.214;2023-03-24T10:39:50;27.00;41.90
34815;DHT22;21030;53.912;15.214;2023-03-24T10:42:23;26.70;41.80
34815;DHT22;21030;53.912;15.214;2023-03-24T10:44:51;26.40;43.00
34815;DHT22;21030;53.912;15.214;2023-03-24T10:47:30;25.80;43.40
34815;DHT22;21030;53.912;15.214;2023-03-24T10:50:01;25.30;44.80
34815;DHT22;21030;53.912;15.214;2023-03-24T10:52:45;25.30;45.40
34815;DHT22;21030;53.912;15.214;2023-03-24T10:55:18;25.30;44.80
34815;DHT22;21030;53.912;15.214;2023-03-24T10:57:49;24.70;46.00
34815;DHT22;21030;53.912;15.214;2023-03-24T11:02:56;24.70;46.50
34815;DHT22;21030;53.912;15.214;2023-03-24T11:05:31;25.00;46.20
34815;DHT22;21030;53.912;15.214;2023-03-24T11:10:43;25.40;45.40
34815;DHT22;21030;53.912;15.214;2023-03-24T11:16:13;25.10;46.10
34815;DHT22;21030;53.912;15.214;2023-03-24T11:18:55;25.40;45.50
34815;DHT22;21030;53.912;15.214;2023-03-24T11:21:23;25.10;45.80
34815;DHT22;21030;53.912;15.214;2023-03-24T11:23:51;25.40;45.50
34815;DHT22;21030;53.912;15.214;2023-03-24T11:26:22;25.60;45.10
34815;DHT22;21030;53.912;15.214;2023-03-24T11:28:57;25.20;45.60
34815;DHT22;21030;53.912;15.214;2023-03-24T11:31:27;25.60;45.50
34815;DHT22;21030;53.912;15.214;2023-03-24T11:33:59;26.00;45.00
34815;DHT22;21030;53.912;15.214;2023-03-24T11:38:59;26.90;42.50
34815;DHT22;21030;53.912;15.214;2023-03-24T11:41:27;27.60;41.80
34815;DHT22;21030;53.912;15.214;2023-03-24T11:46:41;26.80;42.20
34815;DHT22;21030;53.912;15.214;2023-03-24T11:49:12;27.10;42.10
34815;DHT22;21030;53.912;15.214;2023-03-24T11:51:44;27.30;41.90
34815;DHT22;21030;53.912;15.214;2023-03-24T11:54:15;27.10;41.60
34815;DHT22;21030;53.912;15.214;2023-03-24T11:56:52;28.40;40.90
34815;DHT22;21030;53.912;15.214;2023-03-24T12:07:42;29.30;37.90
34815;DHT22;21030;53.912;15.214;2023-03-24T12:13:10;30.50;36.70
34815;DHT22;21030;53.912;15.214;2023-03-24T12:27:31;32.40;31.50
34815;DHT22;21030;53.912;15.214;2023-03-24T12:30:14;32.30;30.50
34815;DHT22;21030;53.912;15.214;2023-03-24T12:32:58;32.60;30.90
34815;DHT22;21030;53.912;15.214;2023-03-24T12:48:57;32.40;29.70
34815;DHT22;21030;53.912;15.214;2023-03-24T12:57:10;34.10;28.30
34815;DHT22;21030;53.912;15.214;2023-03-24T12:59:44;35.10;26.50
34815;DHT22;21030;53.912;15.214;2023-03-24T13:02:44;35.20;25.40
34815;DHT22;21030;53.912;15.214;2023-03-24T13:05:13;35.50;25.30
34815;DHT22;21030;53.912;15.214;2023-03-24T13:07:42;36.10;25.20
34815;DHT22;21030;53.912;15.214;2023-03-24T13:10:14;35.10;24.50
34815;DHT22;21030;53.912;15.214;2023-03-24T13:12:54;34.60;25.70
34815;DHT22;21030;53.912;15.214;2023-03-24T13:20:50;33.30;26.90
34815;DHT22;21030;53.912;15.214;2023-03-24T13:23:45;32.60;27.40
34815;DHT22;21030;53.912;15.214;2023-03-24T13:31:20;33.00;27.50
34815;DHT22;21030;53.912;15.214;2023-03-24T13:33:48;32.70;26.90
34815;DHT22;21030;53.912;15.214;2023-03-24T13:36:43;32.40;27.30
34815;DHT22;21030;53.912;15.214;2023-03-24T13:39:19;32.00;27.70
34815;DHT22;21030;53.912;15.214;2023-03-24T13:41:52;32.30;27.70
34815;DHT22;21030;53.912;15.214;2023-03-24T13:44:26;32.10;27.30
34815;DHT22;21030;53.912;15.214;2023-03-24T13:49:43;32.60;27.30
34815;DHT22;21030;53.912;15.214;2023-03-24T13:52:35;33.00;26.80
34815;DHT22;21030;53.912;15.214;2023-03-24T13:55:12;34.20;26.30
34815;DHT22;21030;53.912;15.214;2023-03-24T13:57:56;34.60;25.00
34815;DHT22;21030;53.912;15.214;2023-03-24T14:00:25;35.10;24.50
34815;DHT22;21030;53.912;15.214;2023-03-24T14:03:13;35.30;24.40
34815;DHT22;21030;53.912;15.214;2023-03-24T14:06:01;35.90;24.10
34815;DHT22;21030;53.912;15.214;2023-03-24T14:16:50;36.40;23.70
34815;DHT22;21030;53.912;15.214;2023-03-24T14:19:23;36.10;23.30
34815;DHT22;21030;53.912;15.214;2023-03-24T14:22:12;37.50;23.80
34815;DHT22;21030;53.912;15.214;2023-03-24T14:24:42;36.70;22.80
34815;DHT22;21030;53.912;15.214;2023-03-24T14:27:39;36.60;23.10
34815;DHT22;21030;53.912;15.214;2023-03-24T14:30:28;37.40;22.90
34815;DHT22;21030;53.912;15.214;2023-03-24T14:33:00;37.40;22.60
34815;DHT22;21030;53.912;15.214;2023-03-24T14:35:43;37.40;22.60
34815;DHT22;21030;53.912;15.214;2023-03-24T14:40:47;37.20;23.40
34815;DHT22;21030;53.912;15.214;2023-03-24T14:43:29;37.20;22.80
34815;DHT22;21030;53.912;15.214;2023-03-24T14:53:58;35.50;23.10
34815;DHT22;21030;53.912;15.214;2023-03-24T14:56:32;36.20;22.70
34815;DHT22;21030;53.912;15.214;2023-03-24T14:59:07;36.60;22.50
34815;DHT22;21030;53.912;15.214;2023-03-24T15:01:37;36.20;21.80
34815;DHT22;21030;53.912;15.214;2023-03-24T15:04:11;36.10;21.20
34815;DHT22;21030;53.912;15.214;2023-03-24T15:06:46;35.70;21.30
34815;DHT22;21030;53.912;15.214;2023-03-24T15:09:17;34.40;21.60
34815;DHT22;21030;53.912;15.214;2023-03-24T15:11:45;34.80;22.60
34815;DHT22;21030;53.912;15.214;2023-03-24T15:14:23;35.10;22.30
34815;DHT22;21030;53.912;15.214;2023-03-24T15:17:04;35.70;22.20
34815;DHT22;21030;53.912;15.214;2023-03-24T15:19:32;35.10;22.00
34815;DHT22;21030;53.912;15.214;2023-03-24T15:22:05;34.30;22.40
34815;DHT22;21030;53.912;15.214;2023-03-24T15:24:39;34.10;22.50
34815;DHT22;21030;53.912;15.214;2023-03-24T15:27:12;34.00;23.10
34815;DHT22;21030;53.912;15.214;2023-03-24T15:29:41;33.70;23.00
34815;DHT22;21030;53.912;15.214;2023-03-24T15:32:20;33.60;23.20
34815;DHT22;21030;53.912;15.214;2023-03-24T15:34:55;33.40;23.20
34815;DHT22;21030;53.912;15.214;2023-03-24T15:39:58;34.00;23.40
34815;DHT22;21030;53.912;15.214;2023-03-24T15:42:43;34.30;22.90
34815;DHT22;21030;53.912;15.214;2023-03-24T15:45:28;33.80;22.70
34815;DHT22;21030;53.912;15.214;2023-03-24T15:47:57;32.80;23.10
34815;DHT22;21030;53.912;15.214;2023-03-24T15:50:37;32.50;24.20
34815;DHT22;21030;53.912;15.214;2023-03-24T15:55:42;33.30;23.60
34815;DHT22;21030;53.912;15.214;2023-03-24T15:58:24;34.40;23.50
34815;DHT22;21030;53.912;15.214;2023-03-24T16:01:00;33.50;23.90
34815;DHT22;21030;53.912;15.214;2023-03-24T16:03:29;33.40;23.40
34815;DHT22;21030;53.912;15.214;2023-03-24T16:05:59;33.70;23.60
34815;DHT22;21030;53.912;15.214;2023-03-24T16:08:34;33.60;23.50
34815;DHT22;21030;53.912;15.214;2023-03-24T16:11:07;33.80;23.70
34815;DHT22;21030;53.912;15.214;2023-03-24T16:13:38;33.80;23.40
34815;DHT22;21030;53.912;15.214;2023-03-24T16:18:44;34.10;23.70
34815;DHT22;21030;53.912;15.214;2023-03-24T16:21:20;34.80;23.10
34815;DHT22;21030;53.912;15.214;2023-03-24T16:23:49;34.40;23.50
34815;DHT22;21030;53.912;15.214;2023-03-24T16:26:24;33.80;23.20
34815;DHT22;21030;53.912;15.214;2023-03-24T16:28:52;33.30;23.90
34815;DHT22;21030;53.912;15.214;2023-03-24T16:33:53;33.10;24.40
34815;DHT22;21030;53.912;15.214;2023-03-24T16:36:24;33.60;24.50
34815;DHT22;21030;53.912;15.214;2023-03-24T16:38:57;33.20;24.20
34815;DHT22;21030;53.912;15.214;2023-03-24T16:41:24;33.60;24.10
34815;DHT22;21030;53.912;15.214;2023-03-24T16:43:51;34.70;23.80
34815;DHT22;21030;53.912;15.214;2023-03-24T16:46:30;33.60;23.80
34815;DHT22;21030;53.912;15.214;2023-03-24T16:48:58;33.40;24.30
34815;DHT22;21030;53.912;15.214;2023-03-24T16:51:27;33.80;24.00
34815;DHT22;21030;53.912;15.214;2023-03-24T16:53:55;34.00;24.00
34815;DHT22;21030;53.912;15.214;2023-03-24T16:56:23;34.00;24.40
34815;DHT22;21030;53.912;15.214;2023-03-24T16:58:50;33.90;23.90
34815;DHT22;21030;53.912;15.214;2023-03-24T17:04:18;34.50;23.80
34815;DHT22;21030;53.912;15.214;2023-03-24T17:06:47;34.30;23.90
34815;DHT22;21030;53.912;15.214;2023-03-24T17:09:15;35.00;23.70
34815;DHT22;21030;53.912;15.214;2023-03-24T17:11:45;35.20;23.60
34815;DHT22;21030;53.912;15.214;2023-03-24T17:14:13;35.20;23.50
34815;DHT22;21030;53.912;15.214;2023-03-24T17:16:43;35.90;23.10
34815;DHT22;21030;53.912;15.214;2023-03-24T17:19:13;36.00;23.00
34815;DHT22;21030;53.912;15.214;2023-03-24T17:22:00;36.30;22.70
34815;DHT22;21030;53.912;15.214;2023-03-24T17:24:31;34.90;23.10
34815;DHT22;21030;53.912;15.214;2023-03-24T17:27:02;35.10;23.40
34815;DHT22;21030;53.912;15.214;2023-03-24T17:29:29;35.00;23.40
34815;DHT22;21030;53.912;15.214;2023-03-24T17:31:57;35.60;23.30
34815;DHT22;21030;53.912;15.214;2023-03-24T17:34:24;35.60;23.00
34815;DHT22;21030;53.912;15.214;2023-03-24T17:36:51;35.80;23.10
34815;DHT22;21030;53.912;15.214;2023-03-24T17:39:19;35.70;23.00
34815;DHT22;21030;53.912;15.214;2023-03-24T17:41:47;35.40;23.10
34815;DHT22;21030;53.912;15.214;2023-03-24T17:44:14;35.20;23.30
34815;DHT22;21030;53.912;15.214;2023-03-24T17:46:43;34.40;23.80
34815;DHT22;21030;53.912;15.214;2023-03-24T17:49:10;33.00;24.60
34815;DHT22;21030;53.912;15.214;2023-03-24T17:51:37;32.70;25.50
34815;DHT22;21030;53.912;15.214;2023-03-24T17:54:04;32.30;25.60
34815;DHT22;21030;53.912;15.214;2023-03-24T17:56:31;32.40;25.60
34815;DHT22;21030;53.912;15.214;2023-03-24T17:58:58;32.20;25.70
34815;DHT22;21030;53.912;15.214;2023-03-24T18:01:25;32.00;25.80
34815;DHT22;21030;53.912;15.214;2023-03-24T18:03:57;31.50;26.20
34815;DHT22;21030;53.912;15.214;2023-03-24T18:06:24;31.50;26.50
34815;DHT22;21030;53.912;15.214;2023-03-24T18:08:53;31.60;26.50
34815;DHT22;21030;53.912;15.214;2023-03-24T18:11:20;32.00;26.00
34815;DHT22;21030;53.912;15.214;2023-03-24T18:13:48;32.30;26.10
34815;DHT22;21030;53.912;15.214;2023-03-24T18:16:15;31.70;25.90
34815;DHT22;21030;53.912;15.214;2023-03-24T18:18:49;30.90;26.60
34815;DHT22;21030;53.912;15.214;2023-03-24T18:21:17;31.20;26.60
34815;DHT22;21030;53.912;15.214;2023-03-24T18:23:45;31.50;26.80
34815;DHT22;21030;53.912;15.214;2023-03-24T18:26:13;31.80;26.50